Tahitian Princess — ZCDD8 — position and weather

sailwx.info

Track history (hours):
 
Tides and Currents Weather Stations Pressure Air Temp Water Temp Dewpoint Dewpoint Depression Visibility Wind Speed Wind Dir Waves Ship Positions

Tahitian Princess

Operator: P & O Irish Sea Ltd

Last reported at 2020-May-25 19:30 UTC. Time now 2020-May-25 21:39 UTC.
Position N 53°21' W 006°13'.

Length 167 m; draft 5.7 m.

Type: Ship (hazmat cat A). MMSI: 310362000.

Date/timePositionNaut miles runAvg speedWind from/ knotsBaromVisibWave heightAir tempDewpointWater temp
2020-May-25 19:30N 53°21' W 006°13'0 0.0
2020-May-25 15:30N 53°21' W 006°13'0 0.0
2020-May-25 13:30N 53°21' W 006°13'0 0.0
2020-May-25 10:00N 53°21' W 006°13'0 0.0
2020-May-25 09:00N 53°21' W 006°13'0 0.0
2020-May-25 07:30N 53°21' W 006°13'0 0.1
2020-May-25 06:00N 53°21' W 006°13'3 1.2
2020-May-25 03:30N 53°21' W 006°08'11210.2
2020-May-24 16:30N 53°27' W 003°01'0 0.0
2020-May-24 16:00N 53°27' W 003°01'0 0.0
2020-May-24 11:00N 53°27' W 003°01'0 0.0
2020-May-24 10:30N 53°27' W 003°01'0 0.0
2020-May-24 09:30N 53°27' W 003°01'0 0.0
2020-May-24 09:00N 53°27' W 003°01'0 0.0
2020-May-24 07:00N 53°27' W 003°01'0 0.2
2020-May-24 04:30N 53°27' W 003°01'0 0.4
2020-May-24 04:00N 53°27' W 003°01'1212.2
2020-May-24 03:00N 53°31' W 003°20'815.8
2020-May-24 02:30N 53°31' W 003°33'9314.3
2020-May-23 20:00N 53°21' W 006°09'3 2.7
2020-May-23 19:00N 53°21' W 006°13'10 2.9
2020-May-23 15:30N 53°22' W 005°56'9116.5
2020-May-23 10:00N 53°32' W 003°25'15 7.4
2020-May-23 08:00N 53°27' W 003°01'0 0.0
2020-May-23 04:30N 53°27' W 003°01'5 3.2
2020-May-23 03:01N 53°31' W 003°07'816.4
2020-May-23 02:30N 53°31' W 003°20'1918.1
2020-May-23 01:28N 53°31' W 003°52'7516.8
2020-May-22 21:00N 53°22' W 005°57'816.0
2020-May-22 20:30N 53°21' W 006°10'2 0.8
2020-May-22 18:00N 53°21' W 006°13'9913.2
2020-May-22 10:30N 53°34' W 003°28'917.8
2020-May-22 10:00N 53°31' W 003°14'9 5.8
2020-May-22 08:30N 53°27' W 003°01'0 0.2
2020-May-22 06:00N 53°27' W 003°01'0 0.0
2020-May-22 05:30N 53°27' W 003°01'0 0.0
2020-May-22 05:00N 53°27' W 003°01'11512.1
2020-May-21 19:30N 53°21' W 006°13'0 0.0
2020-May-21 18:30N 53°21' W 006°13'0 0.0
2020-May-21 17:30N 53°21' W 006°13'0 0.0
2020-May-21 16:30N 53°21' W 006°13'8016.0
2020-May-21 11:30N 53°34' W 004°01'35 4.3
2020-May-21 03:30N 53°28' W 003°03'5 9.7
2020-May-21 03:00N 53°32' W 003°08'2617.1
2020-May-21 01:30N 53°32' W 003°51'6416.6
2020-May-20 21:38N 53°26' W 005°39'1319.5
2020-May-20 20:59N 53°21' W 005°59'9 5.9
2020-May-20 19:30N 53°21' W 006°13'0 0.0
2020-May-20 19:00N 53°21' W 006°13'0 0.0
2020-May-20 17:30N 53°21' W 006°13'0 0.0
2020-May-20 17:00N 53°21' W 006°13'0 0.0
2020-May-20 16:30N 53°21' W 006°13'5313.9
2020-May-20 12:40N 53°34' W 004°47'4714.8
2020-May-20 09:30N 53°33' W 003°28'1615.9
2020-May-20 08:30N 53°28' W 003°03'4 0.8
2020-May-20 03:00N 53°31' W 003°07'9216.7
2020-May-19 21:31N 53°25' W 005°41'1717.2
2020-May-19 20:30N 53°21' W 006°09'3 5.1
2020-May-19 19:58N 53°21' W 006°13'0 0.0
2020-May-19 19:16N 53°21' W 006°13'0 0.0
2020-May-19 17:46N 53°21' W 006°13'3 1.6
2020-May-19 15:58N 53°21' W 006°08'716.2
2020-May-19 15:31N 53°23' W 005°56'815.7
2020-May-19 15:01N 53°24' W 005°43'6315.7
2020-May-19 10:59N 53°35' W 003°59'23 2.8
2020-May-19 02:31N 53°31' W 003°20'816.2
2020-May-19 02:00N 53°31' W 003°34'815.1
2020-May-19 01:31N 53°32' W 003°46'7216.0
2020-May-18 21:02N 53°24' W 005°46'017.7
2020-May-18 21:00N 53°24' W 005°47'1515.2
2020-May-18 20:00N 53°21' W 006°12'1 0.4
2020-May-18 18:13N 53°21' W 006°13'0 0.0
2020-May-18 14:22N 53°21' W 006°13'0 0.0
2020-May-18 13:49N 53°21' W 006°13'0 0.0
2020-May-18 13:16N 53°21' W 006°13'0 0.0
2020-May-18 08:52N 53°21' W 006°13'0 0.1
2020-May-18 07:13N 53°21' W 006°13'0 0.0
2020-May-18 06:34N 53°21' W 006°13'0 0.0
2020-May-18 04:28N 53°21' W 006°13'14 9.6
2020-May-18 03:00N 53°24' W 005°50'3117.6
2020-May-18 01:16N 53°32' W 005°01'1017.2
2020-May-18 00:42N 53°35' W 004°45'6212.0
2020-May-17 19:30N 53°27' W 003°01'0 0.0
2020-May-17 19:00N 53°27' W 003°01'0 0.0
2020-May-17 17:30N 53°27' W 003°01'0 0.0
2020-May-17 16:30N 53°27' W 003°01'0 0.0
2020-May-17 16:00N 53°27' W 003°01'0 0.0
2020-May-17 14:00N 53°27' W 003°01'0 0.0
2020-May-17 12:30N 53°27' W 003°01'0 0.0
2020-May-17 12:00N 53°27' W 003°01'0 0.0
2020-May-17 08:30N 53°27' W 003°01'0 0.0
2020-May-17 08:00N 53°27' W 003°01'0 0.0
2020-May-17 07:30N 53°27' W 003°01'0 0.0
2020-May-17 06:00N 53°27' W 003°01'0 0.0
2020-May-17 05:00N 53°27' W 003°01'6 4.3
2020-May-17 03:30N 53°32' W 003°09'1616.5
2020-May-17 02:30N 53°32' W 003°37'8314.1
2020-May-16 20:37N 53°22' W 005°56'914.3
2020-May-16 20:00N 53°21' W 006°10'2 0.8
2020-May-16 17:43N 53°21' W 006°13'8011.8
2020-May-16 11:00N 53°34' W 004°01'1616.1
2020-May-16 10:01N 53°33' W 003°34'2110.4
2020-May-16 08:00N 53°27' W 003°01'0 0.0
2020-May-16 07:30N 53°27' W 003°01'4 0.9
2020-May-16 03:01N 53°30' W 003°06'917.0
2020-May-16 02:31N 53°31' W 003°20'9615.9
2020-May-15 20:30N 53°21' W 005°60'  
Track history (hours):
 
Tides and Currents Weather Stations Pressure Air Temp Water Temp Dewpoint Dewpoint Depression Visibility Wind Speed Wind Dir Waves Ship Positions

Tahitian Princess

Operator: P & O Irish Sea Ltd

Last reported at 2020-May-25 19:30 UTC. Time now 2020-May-25 21:39 UTC.
Position N 53°21' W 006°13'.

Length 167 m; draft 5.7 m.

Type: Ship (hazmat cat A). MMSI: 310362000.

Date/timePositionNaut miles runAvg speedWind from/ knotsBaromVisibWave heightAir tempDewpointWater temp
2020-May-25 19:30N 53°21' W 006°13'0 0.0
2020-May-25 15:30N 53°21' W 006°13'0 0.0
2020-May-25 13:30N 53°21' W 006°13'0 0.0
2020-May-25 10:00N 53°21' W 006°13'0 0.0
2020-May-25 09:00N 53°21' W 006°13'0 0.0
2020-May-25 07:30N 53°21' W 006°13'0 0.1
2020-May-25 06:00N 53°21' W 006°13'3 1.2
2020-May-25 03:30N 53°21' W 006°08'11210.2
2020-May-24 16:30N 53°27' W 003°01'0 0.0
2020-May-24 16:00N 53°27' W 003°01'0 0.0
2020-May-24 11:00N 53°27' W 003°01'0 0.0
2020-May-24 10:30N 53°27' W 003°01'0 0.0
2020-May-24 09:30N 53°27' W 003°01'0 0.0
2020-May-24 09:00N 53°27' W 003°01'0 0.0
2020-May-24 07:00N 53°27' W 003°01'0 0.2
2020-May-24 04:30N 53°27' W 003°01'0 0.4
2020-May-24 04:00N 53°27' W 003°01'1212.2
2020-May-24 03:00N 53°31' W 003°20'815.8
2020-May-24 02:30N 53°31' W 003°33'9314.3
2020-May-23 20:00N 53°21' W 006°09'3 2.7
2020-May-23 19:00N 53°21' W 006°13'10 2.9
2020-May-23 15:30N 53°22' W 005°56'9116.5
2020-May-23 10:00N 53°32' W 003°25'15 7.4
2020-May-23 08:00N 53°27' W 003°01'0 0.0
2020-May-23 04:30N 53°27' W 003°01'5 3.2
2020-May-23 03:01N 53°31' W 003°07'816.4
2020-May-23 02:30N 53°31' W 003°20'1918.1
2020-May-23 01:28N 53°31' W 003°52'7516.8
2020-May-22 21:00N 53°22' W 005°57'816.0
2020-May-22 20:30N 53°21' W 006°10'2 0.8
2020-May-22 18:00N 53°21' W 006°13'9913.2
2020-May-22 10:30N 53°34' W 003°28'917.8
2020-May-22 10:00N 53°31' W 003°14'9 5.8
2020-May-22 08:30N 53°27' W 003°01'0 0.2
2020-May-22 06:00N 53°27' W 003°01'0 0.0
2020-May-22 05:30N 53°27' W 003°01'0 0.0
2020-May-22 05:00N 53°27' W 003°01'11512.1
2020-May-21 19:30N 53°21' W 006°13'0 0.0
2020-May-21 18:30N 53°21' W 006°13'0 0.0
2020-May-21 17:30N 53°21' W 006°13'0 0.0
2020-May-21 16:30N 53°21' W 006°13'8016.0
2020-May-21 11:30N 53°34' W 004°01'35 4.3
2020-May-21 03:30N 53°28' W 003°03'5 9.7
2020-May-21 03:00N 53°32' W 003°08'2617.1
2020-May-21 01:30N 53°32' W 003°51'6416.6
2020-May-20 21:38N 53°26' W 005°39'1319.5
2020-May-20 20:59N 53°21' W 005°59'9 5.9
2020-May-20 19:30N 53°21' W 006°13'0 0.0
2020-May-20 19:00N 53°21' W 006°13'0 0.0
2020-May-20 17:30N 53°21' W 006°13'0 0.0
2020-May-20 17:00N 53°21' W 006°13'0 0.0
2020-May-20 16:30N 53°21' W 006°13'5313.9
2020-May-20 12:40N 53°34' W 004°47'4714.8
2020-May-20 09:30N 53°33' W 003°28'1615.9
2020-May-20 08:30N 53°28' W 003°03'4 0.8
2020-May-20 03:00N 53°31' W 003°07'9216.7
2020-May-19 21:31N 53°25' W 005°41'1717.2
2020-May-19 20:30N 53°21' W 006°09'3 5.1
2020-May-19 19:58N 53°21' W 006°13'0 0.0
2020-May-19 19:16N 53°21' W 006°13'0 0.0
2020-May-19 17:46N 53°21' W 006°13'3 1.6
2020-May-19 15:58N 53°21' W 006°08'716.2
2020-May-19 15:31N 53°23' W 005°56'815.7
2020-May-19 15:01N 53°24' W 005°43'6315.7
2020-May-19 10:59N 53°35' W 003°59'23 2.8
2020-May-19 02:31N 53°31' W 003°20'816.2
2020-May-19 02:00N 53°31' W 003°34'815.1
2020-May-19 01:31N 53°32' W 003°46'7216.0
2020-May-18 21:02N 53°24' W 005°46'017.7
2020-May-18 21:00N 53°24' W 005°47'1515.2
2020-May-18 20:00N 53°21' W 006°12'1 0.4
2020-May-18 18:13N 53°21' W 006°13'0 0.0
2020-May-18 14:22N 53°21' W 006°13'0 0.0
2020-May-18 13:49N 53°21' W 006°13'0 0.0
2020-May-18 13:16N 53°21' W 006°13'0 0.0
2020-May-18 08:52N 53°21' W 006°13'0 0.1
2020-May-18 07:13N 53°21' W 006°13'0 0.0
2020-May-18 06:34N 53°21' W 006°13'0 0.0
2020-May-18 04:28N 53°21' W 006°13'14 9.6
2020-May-18 03:00N 53°24' W 005°50'3117.6
2020-May-18 01:16N 53°32' W 005°01'1017.2
2020-May-18 00:42N 53°35' W 004°45'6212.0
2020-May-17 19:30N 53°27' W 003°01'0 0.0
2020-May-17 19:00N 53°27' W 003°01'0 0.0
2020-May-17 17:30N 53°27' W 003°01'0 0.0
2020-May-17 16:30N 53°27' W 003°01'0 0.0
2020-May-17 16:00N 53°27' W 003°01'0 0.0
2020-May-17 14:00N 53°27' W 003°01'0 0.0
2020-May-17 12:30N 53°27' W 003°01'0 0.0
2020-May-17 12:00N 53°27' W 003°01'0 0.0
2020-May-17 08:30N 53°27' W 003°01'0 0.0
2020-May-17 08:00N 53°27' W 003°01'0 0.0
2020-May-17 07:30N 53°27' W 003°01'0 0.0
2020-May-17 06:00N 53°27' W 003°01'0 0.0
2020-May-17 05:00N 53°27' W 003°01'6 4.3
2020-May-17 03:30N 53°32' W 003°09'1616.5
2020-May-17 02:30N 53°32' W 003°37'8314.1
2020-May-16 20:37N 53°22' W 005°56'914.3
2020-May-16 20:00N 53°21' W 006°10'2 0.8
2020-May-16 17:43N 53°21' W 006°13'8011.8
2020-May-16 11:00N 53°34' W 004°01'1616.1
2020-May-16 10:01N 53°33' W 003°34'2110.4
2020-May-16 08:00N 53°27' W 003°01'0 0.0
2020-May-16 07:30N 53°27' W 003°01'4 0.9
2020-May-16 03:01N 53°30' W 003°06'917.0
2020-May-16 02:31N 53°31' W 003°20'9615.9
2020-May-15 20:30N 53°21' W 005°60'  

Dump ship's entire track history